Time;durP1;ratioP1;P1;durP2;ratioP2;P2;SDS_P1;SDS_P2;PMS_P1;PMS_P2;Temp;Humidity;BMP_temperature;BMP_pressure;BME280_temperature;BME280_humidity;BME280_pressure;Samples;Min_cycle;Max_cycle;Signal;HPM_P1;HPM_P2
2023/02/27 00:00:16;;;;;;;6.25;0.40;;;-0.30;99.90;;;;;;6244084;23;20089;-89
2023/02/27 00:02:43;;;;;;;3.65;0.60;;;-0.30;99.90;;;;;;6247012;23;20087;-89
2023/02/27 00:05:09;;;;;;;5.53;0.80;;;-0.30;99.90;;;;;;6219425;23;20453;-89
2023/02/27 00:07:35;;;;;;;1.23;0.30;;;-0.30;99.90;;;;;;6217224;23;20008;-89
2023/02/27 00:10:00;;;;;;;3.03;0.70;;;-0.30;99.90;;;;;;6217903;23;20095;-88
2023/02/27 00:12:26;;;;;;;3.38;0.32;;;-0.30;99.90;;;;;;6218232;23;20001;-89
2023/02/27 00:14:52;;;;;;;6.65;0.50;;;-0.30;99.90;;;;;;6218311;23;20012;-89
2023/02/27 00:17:17;;;;;;;8.57;0.80;;;-0.30;99.90;;;;;;6216911;23;20046;-89
2023/02/27 00:19:43;;;;;;;3.50;0.50;;;-0.40;99.90;;;;;;6244539;23;20012;-89
2023/02/27 00:22:08;;;;;;;2.88;0.32;;;-0.30;99.90;;;;;;6244568;23;20011;-89
2023/02/27 00:24:34;;;;;;;5.95;0.50;;;-0.40;99.90;;;;;;6218351;23;20007;-89
2023/02/27 00:26:59;;;;;;;2.55;0.32;;;-0.40;99.90;;;;;;6217516;23;20027;-90
2023/02/27 00:29:25;;;;;;;7.32;0.43;;;-0.50;99.90;;;;;;6243183;23;20012;-89
2023/02/27 00:31:50;;;;;;;4.82;0.40;;;-0.50;99.90;;;;;;6243689;23;19996;-89
2023/02/27 00:34:16;;;;;;;5.78;0.40;;;-0.50;99.90;;;;;;6244430;23;20030;-89
2023/02/27 00:36:42;;;;;;;4.65;0.40;;;-0.50;99.90;;;;;;6218127;23;20501;-89
2023/02/27 00:39:07;;;;;;;4.93;0.32;;;-0.60;99.90;;;;;;6242982;23;20099;-90
2023/02/27 00:41:33;;;;;;;3.72;0.63;;;-0.60;99.90;;;;;;6245188;23;20000;-89
2023/02/27 00:43:58;;;;;;;6.50;0.50;;;-0.50;99.90;;;;;;6217280;23;20007;-89
2023/02/27 00:46:24;;;;;;;2.83;0.30;;;-0.60;99.90;;;;;;6217249;22;20343;-89
2023/02/27 00:48:49;;;;;;;3.15;0.50;;;-0.60;99.90;;;;;;6216647;23;20004;-89
2023/02/27 00:51:15;;;;;;;3.17;0.47;;;-0.60;99.90;;;;;;6218005;23;20004;-89
2023/02/27 00:53:40;;;;;;;3.45;0.40;;;-0.60;99.90;;;;;;6244622;23;20000;-89
2023/02/27 00:56:07;;;;;;;4.10;0.75;;;-0.60;99.90;;;;;;6217370;23;20024;-89
2023/02/27 00:58:32;;;;;;;8.23;0.50;;;-0.60;99.90;;;;;;6216322;23;20007;-90
2023/02/27 01:00:59;;;;;;;2.38;0.40;;;-0.70;99.90;;;;;;6216231;23;20004;-89
2023/02/27 01:03:24;;;;;;;7.68;1.15;;;-0.70;99.90;;;;;;6217276;23;20418;-89
2023/02/27 01:05:50;;;;;;;4.88;0.30;;;-0.70;99.90;;;;;;6218146;23;20015;-89
2023/02/27 01:08:16;;;;;;;2.47;0.30;;;-0.70;99.90;;;;;;6218330;23;20004;-89
2023/02/27 01:10:42;;;;;;;5.30;0.40;;;-0.80;99.90;;;;;;6219547;23;20013;-89
2023/02/27 01:13:08;;;;;;;2.67;0.38;;;-0.80;99.90;;;;;;6218939;23;20008;-90
2023/02/27 01:15:33;;;;;;;6.28;0.50;;;-0.80;99.90;;;;;;6219766;23;20007;-89
2023/02/27 01:17:59;;;;;;;1.23;0.40;;;-0.90;99.90;;;;;;6218151;23;19997;-89
2023/02/27 01:20:24;;;;;;;4.47;0.50;;;-0.90;99.90;;;;;;6217667;23;20880;-89
2023/02/27 01:22:50;;;;;;;6.93;0.50;;;-0.80;99.90;;;;;;6245208;23;20357;-89
2023/02/27 01:25:16;;;;;;;4.82;0.47;;;-0.80;99.90;;;;;;6218804;23;20404;-89
2023/02/27 01:27:41;;;;;;;4.43;0.40;;;-0.80;99.90;;;;;;6219603;23;20046;-89
2023/02/27 01:30:10;;;;;;;1.67;0.38;;;-0.90;99.90;;;;;;6219447;23;20457;-89
2023/02/27 01:32:36;;;;;;;2.63;0.40;;;-0.90;99.90;;;;;;6219981;23;20000;-89
2023/02/27 01:35:01;;;;;;;7.20;0.82;;;-1.00;99.90;;;;;;6219521;23;20337;-89
2023/02/27 01:37:27;;;;;;;3.05;0.70;;;-1.00;99.90;;;;;;6218200;23;20077;-89
2023/02/27 01:39:52;;;;;;;2.78;0.60;;;-1.10;99.90;;;;;;6218850;23;20011;-90
2023/02/27 01:42:24;;;;;;;5.13;0.40;;;-1.20;99.90;;;;;;6219482;23;20001;-89
2023/02/27 01:45:25;;;;;;;3.90;0.40;;;-1.30;99.90;;;;;;6219380;23;20098;-89
2023/02/27 01:48:16;;;;;;;4.43;1.67;;;-1.30;99.90;;;;;;6218303;23;20430;-89
2023/02/27 01:50:50;;;;;;;1.58;0.40;;;-1.40;99.90;;;;;;6203481;23;20063;-90
2023/02/27 01:53:18;;;;;;;2.45;0.45;;;-1.50;99.90;;;;;;6219705;23;20004;-89
2023/02/27 01:55:46;;;;;;;4.30;0.50;;;-1.50;99.90;;;;;;6219637;23;20016;-90
2023/02/27 01:58:13;;;;;;;4.28;0.60;;;-1.50;99.90;;;;;;6218021;23;20004;-89
2023/02/27 02:00:40;;;;;;;5.57;0.60;;;-1.50;99.90;;;;;;6218758;23;20460;-89
2023/02/27 02:03:18;;;;;;;3.10;0.60;;;-1.50;99.90;;;;;;6219338;23;20004;-90
2023/02/27 02:05:45;;;;;;;5.55;0.60;;;-1.50;99.90;;;;;;6219578;23;20008;-90
2023/02/27 02:08:15;;;;;;;2.33;0.50;;;-1.60;99.90;;;;;;6216672;23;20086;-90
2023/02/27 02:10:41;;;;;;;5.63;0.60;;;-1.60;99.90;;;;;;6218914;23;20012;-90
2023/02/27 02:13:08;;;;;;;4.40;0.60;;;-1.50;99.90;;;;;;6218653;23;20006;-89
2023/02/27 02:15:36;;;;;;;3.63;0.60;;;-1.50;99.90;;;;;;6218712;23;20005;-89
2023/02/27 02:18:35;;;;;;;2.70;0.50;;;-1.50;99.90;;;;;;6216515;23;20516;-90
2023/02/27 02:21:32;;;;;;;4.30;1.00;;;-1.50;99.90;;;;;;6218024;23;20118;-89
2023/02/27 02:24:32;;;;;;;4.25;0.50;;;-1.60;99.90;;;;;;6218841;23;20000;-89
2023/02/27 02:27:23;;;;;;;3.75;0.60;;;-1.70;99.90;;;;;;6217706;23;20022;-89
2023/02/27 02:30:10;;;;;;;3.28;0.50;;;-1.70;99.90;;;;;;6219239;23;20103;-89
2023/02/27 02:33:10;;;;;;;3.30;0.60;;;-1.70;99.90;;;;;;6219233;23;20007;-89
2023/02/27 02:35:42;;;;;;;5.63;0.55;;;-1.60;99.90;;;;;;6218974;23;20046;-89
2023/02/27 02:38:32;;;;;;;4.00;0.50;;;-1.60;99.90;;;;;;6217251;23;20100;-89
2023/02/27 02:41:12;;;;;;;3.65;0.45;;;-1.60;99.90;;;;;;6218850;23;20004;-89
2023/02/27 02:43:59;;;;;;;4.13;0.70;;;-1.60;99.90;;;;;;6218611;23;20035;-89
2023/02/27 02:46:41;;;;;;;4.78;0.90;;;-1.60;99.90;;;;;;6218984;23;20054;-89
2023/02/27 02:49:17;;;;;;;;;;;-1.50;99.90;;;;;;6218867;23;20066;-89
2023/02/27 02:51:47;;;;;;;1.25;0.50;;;-1.50;99.90;;;;;;6218344;23;20314;-89
2023/02/27 02:54:56;;;;;;;4.80;1.02;;;-1.50;99.90;;;;;;6218519;23;20001;-88
2023/02/27 02:57:50;;;;;;;1.83;0.40;;;-1.40;99.90;;;;;;6098350;23;20009;-88
2023/02/27 03:00:20;;;;;;;5.28;0.50;;;-1.30;99.90;;;;;;6122352;23;20150;-89
2023/02/27 03:03:17;;;;;;;3.22;0.60;;;-1.30;99.90;;;;;;6183514;23;20005;-88
2023/02/27 03:06:21;;;;;;;2.55;0.60;;;-1.40;99.90;;;;;;6217998;23;20004;-88
2023/02/27 03:08:54;;;;;;;3.40;0.60;;;-1.40;99.90;;;;;;6176899;23;20031;-88
2023/02/27 03:11:23;;;;;;;2.15;0.65;;;-1.40;99.90;;;;;;6218340;23;20035;-88
2023/02/27 03:13:58;;;;;;;3.17;0.60;;;-1.40;99.90;;;;;;6218667;23;20008;-89
2023/02/27 03:16:33;;;;;;;3.35;0.50;;;-1.40;99.90;;;;;;6217861;23;20038;-89
2023/02/27 03:19:14;;;;;;;3.70;0.50;;;-1.40;99.90;;;;;;6217937;23;20426;-88
2023/02/27 03:21:56;;;;;;;4.72;0.70;;;-1.40;99.90;;;;;;6218600;23;20000;-88
2023/02/27 03:24:48;;;;;;;3.40;0.65;;;-1.50;99.90;;;;;;6245128;23;20449;-88
2023/02/27 03:27:16;;;;;;;4.55;0.60;;;-1.40;99.90;;;;;;6197168;23;20593;-88
2023/02/27 03:29:54;;;;;;;4.63;1.00;;;-1.40;99.90;;;;;;6218459;23;20012;-88
2023/02/27 03:32:26;;;;;;;7.93;0.80;;;-1.40;99.90;;;;;;6217372;23;20538;-88
2023/02/27 03:34:52;;;;;;;8.07;0.50;;;-1.50;99.90;;;;;;6218487;23;20079;-88
2023/02/27 03:37:55;;;;;;;8.25;0.52;;;-1.50;99.90;;;;;;6217567;23;20011;-87
2023/02/27 03:40:47;;;;;;;3.88;1.15;;;-1.40;99.90;;;;;;6218051;23;20012;-88
2023/02/27 03:43:25;;;;;;;4.22;0.80;;;-1.40;99.90;;;;;;6218707;23;20091;-88
2023/02/27 03:45:58;;;;;;;4.63;0.85;;;-1.40;99.90;;;;;;6218639;23;20014;-88
2023/02/27 03:48:24;;;;;;;;;;;-1.40;99.90;;;;;;6216848;23;20000;-88
2023/02/27 03:50:49;;;;;;;3.28;0.55;;;-1.50;99.90;;;;;;6218596;23;19961;-88
2023/02/27 03:53:40;;;;;;;2.35;0.60;;;-1.50;99.90;;;;;;6217873;23;20031;-89
2023/02/27 03:56:08;;;;;;;6.95;0.73;;;-1.50;99.90;;;;;;6215469;23;20050;-88
2023/02/27 03:58:34;;;;;;;2.25;0.45;;;-1.50;99.90;;;;;;6217827;23;20008;-88
2023/02/27 04:01:00;;;;;;;4.47;0.70;;;-1.50;99.90;;;;;;6217157;23;20011;-88
2023/02/27 04:03:27;;;;;;;7.15;0.80;;;-1.60;99.90;;;;;;6216836;23;20008;-88
2023/02/27 04:05:52;;;;;;;3.15;0.40;;;-1.60;99.90;;;;;;6217479;23;20042;-88
2023/02/27 04:08:42;;;;;;;4.07;0.60;;;-1.60;99.90;;;;;;6217974;23;20047;-88
2023/02/27 04:11:34;;;;;;;5.68;0.80;;;-1.70;99.90;;;;;;6217280;23;20019;-88
2023/02/27 04:14:22;;;;;;;2.58;0.60;;;-1.70;99.90;;;;;;6218503;23;20008;-88
2023/02/27 04:17:07;;;;;;;2.75;0.63;;;-1.80;99.90;;;;;;6216761;23;20004;-88
2023/02/27 04:19:41;;;;;;;2.67;0.40;;;-1.90;99.90;;;;;;6217598;23;20335;-88
2023/02/27 04:22:35;;;;;;;4.25;0.57;;;-2.00;99.90;;;;;;6216746;23;20004;-88
2023/02/27 04:25:26;;;;;;;3.25;0.60;;;-2.00;99.90;;;;;;6217175;23;20367;-88
2023/02/27 04:28:01;;;;;;;3.42;1.20;;;-2.10;99.90;;;;;;6220068;23;20473;-86
2023/02/27 04:30:49;;;;;;;6.30;0.85;;;-2.10;99.90;;;;;;6218789;23;20036;-88
2023/02/27 04:33:29;;;;;;;2.85;0.50;;;-2.10;99.90;;;;;;6217074;23;20521;-88
2023/02/27 04:36:05;;;;;;;7.35;0.70;;;-2.20;99.90;;;;;;6217404;23;20004;-88
2023/02/27 04:38:36;;;;;;;5.25;0.98;;;-2.20;99.90;;;;;;6218071;23;20026;-88
2023/02/27 04:41:15;;;;;;;5.63;0.70;;;-2.20;99.90;;;;;;6242966;23;20000;-88
2023/02/27 04:43:44;;;;;;;2.38;0.50;;;-2.20;99.90;;;;;;6246772;23;20342;-88
2023/02/27 04:46:13;;;;;;;7.72;0.70;;;-2.20;99.90;;;;;;6219345;23;20449;-88
2023/02/27 04:48:52;;;;;;;4.10;0.52;;;-2.30;99.90;;;;;;6246690;23;20004;-88
2023/02/27 04:51:21;;;;;;;6.50;0.93;;;-2.30;99.90;;;;;;6219532;23;20015;-88
2023/02/27 04:54:16;;;;;;;4.00;0.70;;;-2.40;99.90;;;;;;6246433;23;20079;-89
2023/02/27 04:56:51;;;;;;;2.28;0.60;;;-2.40;99.90;;;;;;6219603;23;20004;-88
2023/02/27 04:59:21;;;;;;;2.47;0.60;;;-2.40;99.90;;;;;;6219603;23;20007;-88
2023/02/27 05:02:04;;;;;;;4.30;0.55;;;-2.50;99.90;;;;;;6220391;23;20004;-88
2023/02/27 05:04:31;;;;;;;;;;;-2.50;99.90;;;;;;6247313;23;20023;-88
2023/02/27 05:06:59;;;;;;;3.80;0.60;;;-2.50;99.90;;;;;;6222068;23;19910;-88
2023/02/27 05:09:44;;;;;;;3.45;0.60;;;-2.50;99.90;;;;;;6249969;22;20039;-88
2023/02/27 05:12:31;;;;;;;6.05;0.57;;;-2.50;99.90;;;;;;6219689;23;20011;-88
2023/02/27 05:15:06;;;;;;;3.72;1.10;;;-2.50;99.90;;;;;;6245604;23;20023;-88
2023/02/27 05:17:42;;;;;;;5.13;0.80;;;-2.50;99.90;;;;;;6219120;23;20011;-88
2023/02/27 05:20:10;;;;;;;3.22;0.68;;;-2.40;99.90;;;;;;6219368;23;20485;-88
2023/02/27 05:22:45;;;;;;;11.30;1.38;;;-2.50;99.90;;;;;;6219776;23;20010;-88
2023/02/27 05:25:19;;;;;;;2.78;0.60;;;-2.50;99.90;;;;;;6243738;23;20334;-89
2023/02/27 05:27:55;;;;;;;7.22;0.70;;;-2.40;99.90;;;;;;6220343;23;20507;-88
2023/02/27 05:30:33;;;;;;;3.50;0.68;;;-2.40;99.90;;;;;;6245531;23;20050;-88
2023/02/27 05:32:58;;;;;;;4.85;0.98;;;-2.30;99.90;;;;;;6246116;23;19996;-88
2023/02/27 05:35:24;;;;;;;5.05;0.80;;;-2.30;99.90;;;;;;6245944;23;20015;-88
2023/02/27 05:37:57;;;;;;;4.15;0.80;;;-2.30;99.90;;;;;;6219186;23;20035;-88
2023/02/27 05:40:29;;;;;;;7.15;0.70;;;-2.30;99.90;;;;;;6245606;23;20122;-88
2023/02/27 05:43:02;;;;;;;3.67;1.27;;;-2.20;99.90;;;;;;6219098;23;20001;-88
2023/02/27 05:45:31;;;;;;;5.03;1.00;;;-2.20;99.90;;;;;;6219232;23;20004;-89
2023/02/27 05:48:16;;;;;;;7.30;0.80;;;-2.30;99.90;;;;;;6245733;23;20435;-88
2023/02/27 05:50:44;;;;;;;5.28;1.17;;;-2.20;99.90;;;;;;6246402;23;20534;-88
2023/02/27 05:53:15;;;;;;;5.88;0.95;;;-2.20;99.90;;;;;;6242454;23;20008;-88
2023/02/27 05:55:45;;;;;;;5.85;1.00;;;-2.20;99.90;;;;;;6244547;23;20008;-88
2023/02/27 05:58:35;;;;;;;6.88;0.63;;;-2.20;99.90;;;;;;6244819;23;20482;-89
2023/02/27 06:01:03;;;;;;;6.15;0.70;;;-2.20;99.90;;;;;;6245330;23;19996;-89
2023/02/27 06:03:32;;;;;;;8.15;0.73;;;-2.20;99.90;;;;;;6216846;23;20118;-88
2023/02/27 06:06:00;;;;;;;7.50;1.25;;;-2.20;99.90;;;;;;6215243;23;20062;-88
2023/02/27 06:08:27;;;;;;;4.05;0.90;;;-2.10;99.90;;;;;;6241156;22;20052;-88
2023/02/27 06:10:54;;;;;;;2.67;0.60;;;-2.10;99.90;;;;;;6215525;23;20012;-89
2023/02/27 06:13:20;;;;;;;8.25;0.90;;;-2.10;99.90;;;;;;6241982;23;20429;-88
2023/02/27 06:15:46;;;;;;;8.00;0.80;;;-2.00;99.90;;;;;;6214611;23;20015;-88
2023/02/27 06:18:13;;;;;;;2.90;0.70;;;-1.90;99.90;;;;;;6241016;23;20004;-89
2023/02/27 06:20:40;;;;;;;4.70;0.70;;;-2.00;99.90;;;;;;6214749;23;20019;-89
2023/02/27 06:23:06;;;;;;;7.15;0.80;;;-1.90;99.90;;;;;;6240839;23;20000;-88
2023/02/27 06:25:32;;;;;;;4.65;1.00;;;-1.90;99.90;;;;;;6241463;23;20004;-88
2023/02/27 06:27:58;;;;;;;4.88;1.00;;;-1.80;99.90;;;;;;6213980;23;20004;-89
2023/02/27 06:30:23;;;;;;;8.57;1.20;;;-1.80;99.90;;;;;;6213834;23;20038;-88
2023/02/27 06:32:49;;;;;;;5.70;0.80;;;-1.80;99.90;;;;;;6221196;23;20004;-89
2023/02/27 06:35:15;;;;;;;9.90;1.10;;;-1.80;99.90;;;;;;6219330;23;20008;-88
2023/02/27 06:37:40;;;;;;;8.43;1.13;;;-1.90;99.90;;;;;;6214088;23;20001;-88
2023/02/27 06:40:13;;;;;;;6.20;0.90;;;-2.00;99.90;;;;;;6217203;23;20012;-88
2023/02/27 06:42:39;;;;;;;;;;;-2.10;99.90;;;;;;6247990;23;20420;-88
2023/02/27 06:45:05;;;;;;;13.23;3.05;;;-2.10;99.90;;;;;;6217113;23;19900;-89
2023/02/27 06:47:31;;;;;;;8.40;1.10;;;-2.20;99.90;;;;;;6214733;23;20088;-89
2023/02/27 06:49:56;;;;;;;3.80;1.00;;;-2.20;99.90;;;;;;6215156;23;20494;-89
2023/02/27 06:52:22;;;;;;;5.68;0.90;;;-2.30;99.90;;;;;;6214588;23;20004;-89
2023/02/27 06:54:48;;;;;;;5.25;0.85;;;-2.30;99.90;;;;;;6240581;23;20008;-89
2023/02/27 06:57:14;;;;;;;8.45;0.95;;;-2.20;99.90;;;;;;6213194;23;20000;-88
2023/02/27 06:59:39;;;;;;;7.10;1.08;;;-2.20;99.90;;;;;;6214529;22;20061;-89
2023/02/27 07:02:05;;;;;;;6.65;0.82;;;-2.20;99.90;;;;;;6212278;23;20054;-88
2023/02/27 07:04:30;;;;;;;4.32;0.85;;;-2.20;99.90;;;;;;6240532;23;20008;-89
2023/02/27 07:06:57;;;;;;;17.33;2.78;;;-2.10;99.90;;;;;;6240815;23;20004;-88
2023/02/27 07:09:23;;;;;;;4.75;1.00;;;-2.00;99.90;;;;;;6241098;23;20062;-89
2023/02/27 07:11:49;;;;;;;3.60;0.82;;;-1.90;99.90;;;;;;6215953;23;20004;-89
2023/02/27 07:14:15;;;;;;;3.90;0.90;;;-1.90;99.90;;;;;;6216426;23;20004;-88
2023/02/27 07:16:41;;;;;;;4.68;0.70;;;-1.80;99.90;;;;;;6212637;22;20094;-89
2023/02/27 07:19:07;;;;;;;11.98;1.10;;;-1.80;99.90;;;;;;6214832;22;20436;-89
2023/02/27 07:21:33;;;;;;;3.00;0.70;;;-1.80;99.90;;;;;;6219036;23;20011;-88
2023/02/27 07:23:58;;;;;;;4.07;1.30;;;-1.80;99.90;;;;;;6219888;23;20000;-89
2023/02/27 07:26:24;;;;;;;9.05;1.83;;;-1.70;99.90;;;;;;6247675;23;20005;-88
2023/02/27 07:28:49;;;;;;;2.95;0.90;;;-1.70;99.90;;;;;;6217935;23;20059;-88
2023/02/27 07:31:15;;;;;;;6.57;1.45;;;-1.70;99.90;;;;;;6214148;23;20036;-89
2023/02/27 07:33:40;;;;;;;4.80;0.80;;;-1.60;99.90;;;;;;6213416;23;19996;-89
2023/02/27 07:36:06;;;;;;;6.63;1.10;;;-1.50;99.90;;;;;;6216181;23;20004;-88
2023/02/27 07:38:32;;;;;;;7.80;1.35;;;-1.50;99.90;;;;;;6216400;23;20419;-89
2023/02/27 07:40:57;;;;;;;7.05;1.17;;;-1.40;99.90;;;;;;6215985;23;20012;-88
2023/02/27 07:43:24;;;;;;;4.25;1.23;;;-1.40;99.90;;;;;;6215993;23;20384;-89
2023/02/27 07:45:50;;;;;;;6.95;1.85;;;-1.30;99.90;;;;;;6214329;23;20004;-88
2023/02/27 07:48:17;;;;;;;7.72;1.20;;;-1.20;99.90;;;;;;6214473;23;20040;-88
2023/02/27 07:50:42;;;;;;;3.28;1.08;;;-1.10;99.90;;;;;;6215671;23;20012;-88
2023/02/27 07:53:08;;;;;;;9.15;1.23;;;-1.10;99.90;;;;;;6215716;23;20058;-88
2023/02/27 07:55:34;;;;;;;2.40;0.90;;;-1.00;99.90;;;;;;6219824;23;20439;-89
2023/02/27 07:58:00;;;;;;;7.50;1.13;;;-0.90;99.90;;;;;;6215517;23;20091;-89
2023/02/27 08:00:25;;;;;;;5.22;1.08;;;-0.80;99.90;;;;;;6216926;22;20000;-89
2023/02/27 08:02:51;;;;;;;6.97;1.20;;;-0.70;99.90;;;;;;6221915;23;20024;-89
2023/02/27 08:05:16;;;;;;;6.78;1.50;;;-0.50;99.90;;;;;;6220229;23;20000;-89
2023/02/27 08:07:42;;;;;;;11.27;1.60;;;-0.40;99.90;;;;;;6215130;23;20004;-90
2023/02/27 08:10:08;;;;;;;7.82;1.27;;;-0.20;99.90;;;;;;6214781;23;20027;-88
2023/02/27 08:12:34;;;;;;;5.85;1.40;;;-0.10;99.90;;;;;;6213843;23;20005;-89
2023/02/27 08:14:59;;;;;;;4.50;1.13;;;0.10;99.90;;;;;;6212902;23;20083;-88
2023/02/27 08:17:25;;;;;;;7.60;1.50;;;0.20;99.90;;;;;;6239277;23;20000;-89
2023/02/27 08:19:51;;;;;;;5.28;1.17;;;0.30;99.90;;;;;;6213451;23;20028;-88
2023/02/27 08:22:16;;;;;;;3.38;1.25;;;0.40;99.90;;;;;;6215075;23;19996;-88
2023/02/27 08:24:42;;;;;;;9.00;1.17;;;0.60;99.90;;;;;;6241556;23;20004;-89
2023/02/27 08:27:07;;;;;;;5.78;1.45;;;0.70;99.90;;;;;;6213604;23;20450;-88
2023/02/27 08:29:33;;;;;;;4.10;1.75;;;0.80;99.90;;;;;;6214071;23;20027;-88
2023/02/27 08:32:00;;;;;;;5.40;1.55;;;1.00;99.90;;;;;;6240682;23;20028;-87
2023/02/27 08:34:26;;;;;;;6.72;1.25;;;1.10;99.90;;;;;;6214046;23;20457;-87
2023/02/27 08:36:52;;;;;;;7.43;1.30;;;1.20;99.90;;;;;;6213884;23;20000;-88
2023/02/27 08:39:18;;;;;;;9.50;1.50;;;1.40;99.90;;;;;;6213042;23;20008;-87
2023/02/27 08:41:44;;;;;;;7.38;1.10;;;1.50;99.90;;;;;;6212894;23;20054;-87
2023/02/27 08:44:11;;;;;;;7.50;1.30;;;1.60;99.90;;;;;;6216101;23;20028;-87
2023/02/27 08:46:37;;;;;;;6.78;1.38;;;1.70;99.90;;;;;;6215688;23;20771;-87
2023/02/27 08:49:03;;;;;;;7.38;1.38;;;1.80;99.90;;;;;;6214507;23;20050;-87
2023/02/27 08:51:29;;;;;;;5.97;1.52;;;1.90;99.90;;;;;;6214994;23;20083;-87
2023/02/27 08:53:57;;;;;;;9.93;1.75;;;2.00;99.90;;;;;;6214789;23;20027;-88
2023/02/27 08:56:27;;;;;;;11.18;2.03;;;2.10;99.90;;;;;;6213584;23;20004;-88
2023/02/27 08:58:53;;;;;;;7.85;1.10;;;2.20;99.90;;;;;;6214311;23;20378;-88
2023/02/27 09:01:19;;;;;;;4.95;1.20;;;2.30;99.90;;;;;;6214357;23;20058;-88
2023/02/27 09:03:44;;;;;;;11.35;1.70;;;2.40;99.90;;;;;;6215612;23;20008;-88
2023/02/27 09:06:10;;;;;;;6.40;1.10;;;2.50;99.90;;;;;;6214612;23;20001;-88
2023/02/27 09:08:36;;;;;;;7.18;1.20;;;2.60;99.90;;;;;;6213950;23;20012;-88
2023/02/27 09:11:02;;;;;;;6.53;1.10;;;2.60;99.90;;;;;;6239554;23;20396;-88
2023/02/27 09:13:28;;;;;;;8.57;1.35;;;2.70;99.90;;;;;;6213395;22;19996;-88
2023/02/27 09:15:53;;;;;;;3.67;0.80;;;2.70;99.90;;;;;;6213799;23;20004;-88
2023/02/27 09:18:20;;;;;;;6.07;1.83;;;2.80;99.90;;;;;;6216235;23;20098;-87
2023/02/27 09:20:47;;;;;;;11.07;0.80;;;2.90;99.90;;;;;;6214260;23;20114;-88
2023/02/27 09:23:12;;;;;;;6.70;0.60;;;3.00;99.90;;;;;;6215144;23;20445;-87
2023/02/27 09:25:38;;;;;;;4.70;0.80;;;3.10;99.90;;;;;;6243955;22;20083;-88
2023/02/27 09:28:04;;;;;;;5.28;1.23;;;3.10;99.90;;;;;;6216684;23;20007;-87
2023/02/27 09:30:29;;;;;;;5.68;0.88;;;3.20;99.90;;;;;;6247408;23;20016;-87
2023/02/27 09:32:55;;;;;;;4.13;0.90;;;3.20;99.90;;;;;;6216561;23;20005;-87
2023/02/27 09:35:20;;;;;;;4.20;0.80;;;3.30;99.90;;;;;;6215144;23;20035;-88
2023/02/27 09:37:48;;;;;;;5.95;0.80;;;3.40;99.90;;;;;;6246361;22;20020;-88
2023/02/27 09:40:25;;;;;;;3.42;0.50;;;3.40;99.90;;;;;;6215648;23;20013;-87
2023/02/27 09:42:55;;;;;;;4.13;0.60;;;3.50;99.90;;;;;;6213886;23;20095;-87
2023/02/27 09:45:30;;;;;;;4.35;0.60;;;3.60;99.90;;;;;;6216175;23;20000;-87
2023/02/27 09:48:07;;;;;;;5.95;0.65;;;3.70;99.90;;;;;;6219176;23;20439;-86
2023/02/27 09:50:44;;;;;;;6.38;1.55;;;3.80;99.90;;;;;;6214863;23;20012;-86
2023/02/27 09:53:25;;;;;;;3.55;0.77;;;3.90;99.90;;;;;;6216265;23;20435;-86
2023/02/27 09:55:53;;;;;;;9.05;0.95;;;3.90;99.90;;;;;;6243567;23;20004;-86
2023/02/27 09:58:47;;;;;;;2.95;0.45;;;3.90;99.90;;;;;;6245077;23;20070;-86
2023/02/27 10:01:31;;;;;;;2.58;0.40;;;4.00;99.90;;;;;;6216106;23;20032;-86
2023/02/27 10:04:26;;;;;;;4.00;0.50;;;4.10;99.90;;;;;;6217322;23;20450;-86
2023/02/27 10:07:00;;;;;;;4.38;0.57;;;4.10;99.90;;;;;;6217534;23;20388;-86
2023/02/27 10:09:41;;;;;;;3.25;0.75;;;4.20;99.90;;;;;;6215700;23;20101;-86
2023/02/27 10:12:41;;;;;;;4.20;0.35;;;4.30;99.90;;;;;;6218090;23;20058;-86
2023/02/27 10:15:19;;;;;;;4.03;0.60;;;4.30;99.90;;;;;;6218004;23;20000;-86
2023/02/27 10:17:50;;;;;;;7.20;1.33;;;4.40;99.90;;;;;;6216353;23;20030;-87
2023/02/27 10:20:27;;;;;;;3.30;0.60;;;4.40;99.90;;;;;;6217395;23;20016;-87
2023/02/27 10:22:56;;;;;;;2.08;0.50;;;4.40;99.90;;;;;;6244898;23;20004;-87
2023/02/27 10:25:22;;;;;;;3.20;0.80;;;4.50;99.90;;;;;;6217059;23;20004;-86
2023/02/27 10:27:52;;;;;;;2.45;0.55;;;4.50;99.90;;;;;;6217574;23;20012;-87
2023/02/27 10:30:31;;;;;;;1.75;0.30;;;4.60;99.90;;;;;;6214922;22;20016;-86
2023/02/27 10:33:04;;;;;;;3.67;0.32;;;4.60;99.90;;;;;;6219477;23;20503;-87
2023/02/27 10:35:33;;;;;;;1.85;0.30;;;4.70;99.90;;;;;;6216509;23;20000;-87
2023/02/27 10:38:03;;;;;;;2.22;0.40;;;4.70;99.90;;;;;;6216863;23;20004;-86
2023/02/27 10:40:30;;;;;;;3.35;0.40;;;4.80;99.90;;;;;;6219303;23;20016;-87
2023/02/27 10:42:59;;;;;;;2.55;0.30;;;4.80;99.90;;;;;;6219272;23;20010;-86
2023/02/27 10:45:25;;;;;;;3.55;0.50;;;4.90;99.90;;;;;;6246266;23;19992;-87
2023/02/27 10:47:51;;;;;;;2.97;0.30;;;5.00;99.90;;;;;;6246530;23;20004;-86
2023/02/27 10:50:28;;;;;;;5.28;0.95;;;5.00;99.90;;;;;;6215372;23;20020;-87
2023/02/27 10:53:15;;;;;;;3.22;0.40;;;5.10;99.90;;;;;;6217379;22;20161;-86
2023/02/27 10:55:43;;;;;;;3.35;0.30;;;5.10;99.90;;;;;;6218599;23;20496;-86
2023/02/27 10:58:18;;;;;;;2.08;0.35;;;5.20;99.90;;;;;;6243737;22;20014;-86
2023/02/27 11:00:59;;;;;;;1.20;0.30;;;5.20;99.90;;;;;;6217239;23;20039;-86
2023/02/27 11:03:37;;;;;;;3.60;0.40;;;5.20;99.90;;;;;;6246186;23;20009;-87
2023/02/27 11:06:12;;;;;;;4.57;0.40;;;5.30;99.90;;;;;;6218445;23;20023;-86
2023/02/27 11:08:38;;;;;;;7.30;0.52;;;5.40;99.90;;;;;;6245301;23;20004;-86
2023/02/27 11:11:11;;;;;;;2.28;0.30;;;5.40;99.80;;;;;;6242662;23;20084;-85
2023/02/27 11:13:39;;;;;;;5.00;0.50;;;5.60;99.60;;;;;;6215470;23;20326;-86
2023/02/27 11:16:12;;;;;;;3.33;0.45;;;5.60;97.90;;;;;;6215735;23;20004;-86
2023/02/27 11:18:40;;;;;;;2.80;0.30;;;5.50;97.20;;;;;;6218043;23;20004;-86
2023/02/27 11:21:11;;;;;;;3.20;0.30;;;5.50;97.50;;;;;;6213335;22;20513;-87
2023/02/27 11:23:48;;;;;;;3.60;0.30;;;5.60;97.30;;;;;;6214696;23;20008;-86
2023/02/27 11:26:39;;;;;;;3.65;0.30;;;5.60;96.60;;;;;;6242002;23;20007;-86
2023/02/27 11:29:17;;;;;;;0.63;0.20;;;5.70;96.00;;;;;;6241858;22;20367;-86
2023/02/27 11:31:56;;;;;;;1.75;0.30;;;5.80;95.80;;;;;;6215194;23;20676;-86
2023/02/27 11:34:37;;;;;;;3.88;0.25;;;5.90;93.90;;;;;;6215236;23;20012;-86
2023/02/27 11:37:26;;;;;;;4.30;0.30;;;6.00;93.80;;;;;;6213705;23;20008;-86
2023/02/27 11:40:05;;;;;;;2.78;0.25;;;6.10;93.40;;;;;;6202590;23;20076;-86
2023/02/27 11:42:34;;;;;;;2.28;0.63;;;6.20;92.80;;;;;;6240351;22;19993;-86
2023/02/27 11:45:04;;;;;;;3.92;0.40;;;6.20;92.50;;;;;;6216006;23;20012;-86
2023/02/27 11:47:40;;;;;;;2.78;0.35;;;6.30;92.60;;;;;;6218398;23;20084;-86
2023/02/27 11:50:43;;;;;;;2.17;0.30;;;6.40;92.50;;;;;;6243794;23;20008;-86
2023/02/27 11:53:32;;;;;;;4.65;0.30;;;6.50;92.60;;;;;;6215846;23;20012;-86
2023/02/27 11:56:02;;;;;;;2.78;0.38;;;6.70;93.10;;;;;;6247014;23;20498;-86
2023/02/27 11:58:33;;;;;;;3.75;0.22;;;6.90;92.60;;;;;;6217937;23;20016;-85
2023/02/27 12:01:05;;;;;;;1.47;0.20;;;7.00;91.30;;;;;;6213042;23;20010;-86
2023/02/27 12:04:05;;;;;;;2.13;0.30;;;6.80;90.60;;;;;;6215725;23;20298;-87
2023/02/27 12:06:41;;;;;;;1.55;0.25;;;6.60;90.10;;;;;;6216774;23;20044;-87
2023/02/27 12:09:29;;;;;;;2.50;0.30;;;6.40;90.30;;;;;;6215108;23;19996;-87
2023/02/27 12:11:55;;;;;;;2.75;0.20;;;6.20;90.40;;;;;;6216521;23;20494;-86
2023/02/27 12:14:30;;;;;;;1.60;0.38;;;6.10;90.30;;;;;;6214186;23;20004;-87
2023/02/27 12:17:11;;;;;;;3.80;0.20;;;6.00;90.50;;;;;;6215051;23;20024;-87
2023/02/27 12:20:14;;;;;;;1.63;0.15;;;6.00;90.30;;;;;;6212679;23;20480;-86
2023/02/27 12:22:45;;;;;;;3.63;0.20;;;6.10;90.40;;;;;;6219057;23;20015;-86
2023/02/27 12:25:32;;;;;;;1.90;0.22;;;6.20;90.10;;;;;;6214442;23;20006;-86
2023/02/27 12:28:34;;;;;;;1.85;0.20;;;6.30;89.20;;;;;;6244426;23;20004;-87
2023/02/27 12:31:04;;;;;;;1.88;0.20;;;6.40;90.00;;;;;;6243309;22;20023;-87
2023/02/27 12:33:41;;;;;;;2.03;0.20;;;6.50;89.60;;;;;;6215459;23;20004;-86
2023/02/27 12:36:12;;;;;;;1.35;0.20;;;6.70;89.30;;;;;;6237229;22;20015;-87
2023/02/27 12:38:38;;;;;;;2.47;0.20;;;6.80;89.30;;;;;;6212999;23;20008;-85
2023/02/27 12:41:32;;;;;;;1.65;0.20;;;6.80;89.90;;;;;;6217056;23;20437;-87
2023/02/27 12:44:11;;;;;;;1.00;0.15;;;7.00;90.40;;;;;;6217415;23;20095;-86
2023/02/27 12:47:07;;;;;;;1.95;0.35;;;7.20;87.60;;;;;;6216589;23;20000;-86
2023/02/27 12:49:33;;;;;;;1.60;0.25;;;7.40;87.90;;;;;;6243916;23;20012;-87
2023/02/27 12:52:28;;;;;;;1.42;0.20;;;7.30;85.50;;;;;;6218597;23;20057;-86
2023/02/27 12:55:22;;;;;;;3.75;0.30;;;7.20;85.10;;;;;;6217602;23;20004;-86
2023/02/27 12:58:14;;;;;;;1.52;0.30;;;7.10;84.90;;;;;;6217805;23;20054;-86
2023/02/27 13:00:51;;;;;;;3.33;0.30;;;6.90;85.80;;;;;;6218115;23;20007;-86
2023/02/27 13:03:29;;;;;;;1.83;0.20;;;6.80;85.80;;;;;;6244246;22;20031;-86
2023/02/27 13:06:28;;;;;;;1.75;0.30;;;6.70;86.60;;;;;;6244411;23;20004;-87
2023/02/27 13:09:02;;;;;;;1.90;0.40;;;6.70;86.70;;;;;;6215033;23;20087;-87
2023/02/27 13:11:50;;;;;;;3.88;0.50;;;6.70;86.90;;;;;;6217357;23;20342;-87
2023/02/27 13:14:23;;;;;;;2.88;0.30;;;6.60;87.40;;;;;;6218462;23;20052;-86
2023/02/27 13:16:56;;;;;;;0.93;0.30;;;6.70;86.80;;;;;;6218823;22;20004;-86
2023/02/27 13:19:44;;;;;;;;;;;6.70;87.30;;;;;;6246138;22;20411;-85
2023/02/27 13:22:19;;;;;;;2.15;0.20;;;6.70;87.30;;;;;;6209304;23;19903;-87